• Join FlightAware (Why Join?)
  • Login
  • US Flag 
04:06PM EDT


 

Airport Tracker/Info


-or-


 

Live Flight TrackerFlight Track Log ✈ WBR2626 ✈ 04-Jul-2013 ✈ KSTL - KBRL

Flight Track Log - Related Links

Times and Time Zones

All times are in EDT time to prevent confusion due to time zone crossing. See the WBR2626 flight status page for this flight to view local times or setup timezone preferences in your user account.

Time Position Orientation Groundspeed Altitude Reporting Facility
EDT Latitude Longitude Course Direction KTS MPH feet Rate Location/Type
04:12PM 38.7500 -90.3500 90° East 94 108 900  Level Gateway (St. Louis) TRACON
04:13PM 38.7500 -90.3333 90° East 92 106 1,500 720 Climbing Gateway (St. Louis) TRACON
04:14PM 38.7667 -90.3167 38° Northeast 117 135 2,300 720 Climbing Gateway (St. Louis) TRACON
04:15PM 38.7836 -90.3294 330° Northwest 118 136 2,600 780 Climbing Kansas City Center
04:16PM 38.8150 -90.3428 342° North 119 137 3,500 900 Climbing Kansas City Center
04:17PM 38.8544 -90.3581 343° North 121 139 4,500 900 Climbing Kansas City Center
04:18PM 38.8883 -90.3697 345° North 124 143 5,400 840 Climbing Kansas City Center
04:19PM 38.9219 -90.3814 345° North 125 144 6,300 780 Climbing Kansas City Center
04:20PM 38.9533 -90.3939 343° North 121 139 7,100 780 Climbing Kansas City Center
04:21PM 38.9864 -90.4072 343° North 123 142 7,900 480 Climbing Kansas City Center
04:22PM 39.0250 -90.4217 344° North 140 161 8,100 60 Climbing Kansas City Center
04:23PM 39.0672 -90.4392 342° North 159 183 8,100 -60 Level Kansas City Center
04:24PM 39.1100 -90.4561 343° North 160 184 8,000 -60 Descending Kansas City Center
04:25PM 39.1606 -90.4767 343° North 160 184 8,000  Level Kansas City Center
04:27PM 39.2386 -90.5025 346° North 162 186 8,000  Level Chicago Center
04:28PM 39.2825 -90.5231 340° North 161 185 8,100  Climbing Chicago Center
04:29PM 39.3242 -90.5358 347° North 156 180 8,000  Descending Chicago Center
04:30PM 39.3653 -90.5511 344° North 154 177 8,100  Climbing Chicago Center
04:31PM 39.4128 -90.5664 346° North 156 180 8,000 -60 Descending Kansas City Center
04:32PM 39.4556 -90.5811 345° North 159 183 8,000  Level Kansas City Center
04:33PM 39.5006 -90.5911 350° North 163 188 8,000  Level Kansas City Center
04:34PM 39.5494 -90.6150 339° North 157 181 8,000  Level Kansas City Center
04:35PM 39.5914 -90.6344 340° North 160 184 8,000  Level Kansas City Center
04:36PM 39.6319 -90.6503 343° North 155 178 8,000  Level Kansas City Center
04:37PM 39.6736 -90.6672 343° North 157 181 8,000  Level Kansas City Center
04:38PM 39.7158 -90.6833 344° North 158 182 8,000  Level Kansas City Center
04:39PM 39.7636 -90.6989 346° North 159 183 8,100  Climbing Kansas City Center
04:40PM 39.8014 -90.7281 329° Northwest 163 188 8,000 -60 Descending Kansas City Center
04:41PM 39.8333 -90.7642 319° Northwest 158 182 8,000  Level Kansas City Center
04:42PM 39.8750 -90.7894 335° Northwest 161 185 8,000  Level Kansas City Center
04:43PM 39.9164 -90.8103 339° North 161 185 8,000  Level Kansas City Center
04:44PM 39.9603 -90.8200 350° North 161 185 8,000  Level Kansas City Center
04:45PM 40.0064 -90.8222 358° North 165 190 8,000 -180 Level Kansas City Center
04:46PM 40.0597 -90.8381 347° North 164 189 7,700 -540 Descending Kansas City Center
04:47PM 40.1044 -90.8558 343° North 164 189 7,000 -660 Descending Kansas City Center
04:48PM 40.1456 -90.8739 341° North 161 185 6,500 -660 Descending Chicago Center
04:49PM 40.1922 -90.8942 342° North 167 192 5,800 -660 Descending Chicago Center
04:51PM 40.2353 -90.9078 346° North 164 189 5,200 -600 Descending Chicago Center
04:52PM 40.2783 -90.9231 345° North 160 184 4,600 -600 Descending Kansas City Center
04:53PM 40.3219 -90.9386 345° North 162 186 4,000 -540 Descending Kansas City Center
04:54PM 40.3667 -90.9556 344° North 162 186 3,600 -420 Descending Kansas City Center
04:55PM 40.4075 -90.9719 343° North 160 184 3,200 -300 Descending Chicago Center
04:56PM 40.4464 -90.9869 344° North 154 177 3,100 -60 Descending Chicago Center
04:57PM 40.4922 -91.0061 342° North 157 181 3,100  Level Chicago Center
04:58PM 40.5389 -91.0247 343° North 166 191 3,100 -60 Level Chicago Center
04:59PM 40.5858 -91.0472 340° North 160 184 3,000 -60 Descending Chicago Center
05:00PM 40.6236 -91.0700 335° Northwest 156 180 3,000  Level Chicago Center
05:01PM 40.6617 -91.0944 334° Northwest 153 176 3,000 -120 Level Chicago Center
05:02PM 40.6986 -91.1244 328° Northwest 154 177 2,800 -300 Descending Chicago Center
05:03PM 40.7389 -91.1461 338° Northwest 158 182 2,500 -240 Descending Chicago Center
05:04PM 40.7914 -91.1394 North 164 189 2,400 -120 Descending Chicago Center
05:06PM 40.7832 -91.1255 143° Southeast  Level Estimated